Howards Grove, Wisconsin
Current Conditions -  °F | °C
As of 10:53 AM on Thursday 23 Oct 2014 (Local Time) from KSBM Reporting Station
Clear Clear  
Wind Chill: 51°   Ceiling: Unl
Heat Index: 51°   Visibility: 10mi
Dew Point: 40°   Wind: 8mph
Humidity: 66%   Direction: 190°S
Pressure: 30.15"   Gusts: NA
Location:  43.8288°N, 87.7756°W
Report Text: KSBM 231553Z AUTO 19007KT 10SM CLR 11/04 A3015 RMK AO2 SLP216 T01060044
Loading
Personal Weather Stations






























Interactive Weather Map
Tropical Storm Tracking
New forecast layout! Learn more

10-Day Weather Forecast

Advertisements
Track Severe Weather on mobile